Delmar, Iowa
Current Conditions -  °F | °C
As of 10:15 PM on Wednesday 28 Jan 2015 (Local Time) from KCWI Reporting Station
Clear Clear  
Wind Chill: 25°   Ceiling: Unl
Heat Index: 34°   Visibility: 10mi
Dew Point: 28°   Wind: 13mph
Humidity: 81%   Direction: 140°SE
Pressure: 29.77"   Gusts: NA
Location:  42°N, 90.61°W
Report Text: KCWI 290415Z AUTO 14011KT 10SM CLR 01/M02 A2977 RMK AO1
Loading
Personal Weather Stations






























Interactive Weather Map New forecast layout! Learn more

10-Day Weather Forecast

Advertisements
Track Severe Weather on mobile